Time;durP1;ratioP1;P1;durP2;ratioP2;P2;SDS_P1;SDS_P2;PMS_P1;PMS_P2;Temp;Humidity;BMP_temperature;BMP_pressure;BME280_temperature;BME280_humidity;BME280_pressure;Samples;Min_cycle;Max_cycle;Signal;HPM_P1;HPM_P2
2021/05/24 00:00:40;;;;;;;;;;;;;;;;;;2089104;28;46132;-66
2021/05/24 00:01:41;;;;;;;;;;;;;;;;;;2090072;28;46927;-66
2021/05/24 00:02:43;;;;;;;;;;;;;;;;;;2090010;28;48421;-65
2021/05/24 00:03:45;;;;;;;;;;;;;;;;;;2090316;28;44600;-65
2021/05/24 00:04:46;;;;;;;;;;;;;;;;;;2089455;28;45288;-65
2021/05/24 00:05:48;;;;;;;;;;;;;;;;;;2089525;28;43950;-65
2021/05/24 00:06:49;;;;;;;;;;;;;;;;;;2097566;28;42697;-65
2021/05/24 00:07:52;;;;;;;;;;;;;;;;;;2097989;28;43919;-65
2021/05/24 00:08:53;;;;;;;;;;;;;;;;;;2089379;28;44923;-64
2021/05/24 00:09:55;;;;;;;;;;;;;;;;;;2089464;28;45962;-65
2021/05/24 00:10:56;;;;;;;;;;;;;;;;;;2089362;28;45317;-65
2021/05/24 00:11:58;;;;;;;;;;;;;;;;;;2090009;28;45459;-65
2021/05/24 00:13:04;;;;;;;;;;;;;;;;;;2089372;28;42528;-65
2021/05/24 00:14:07;;;;;;;;;;;;;;;;;;2089414;28;45063;-65
2021/05/24 00:15:09;;;;;;;;;;;;;;;;;;2089075;28;46408;-65
2021/05/24 00:16:11;;;;;;;;;;;;;;;;;;2089600;28;45255;-65
2021/05/24 00:17:12;;;;;;;;;;;;;;;;;;2097248;28;45218;-65
2021/05/24 00:18:14;;;;;;;;;;;;;;;;;;2089963;28;46345;-66
2021/05/24 00:19:16;;;;;;;;;;;;;;;;;;2089901;28;46794;-65
2021/05/24 00:20:18;;;;;;;;;;;;;;;;;;2089424;28;46415;-66
2021/05/24 00:21:20;;;;;;;;;;;;;;;;;;2081143;28;45961;-65
2021/05/24 00:22:22;;;;;;;;;;;;;;;;;;2089147;28;44596;-66
2021/05/24 00:23:23;;;;;;;;;;;;;;;;;;2089643;28;46385;-65
2021/05/24 00:24:25;;;;;;;;;;;;;;;;;;2089338;28;46315;-65
2021/05/24 00:25:29;;;;;;;;;;;;;;;;;;2081521;28;46356;-65
2021/05/24 00:26:30;;;;;;;;;;;;;;;;;;2081642;28;45182;-65
2021/05/24 00:27:31;;;;;;;;;;;;;;;;;;2089632;28;45912;-65
2021/05/24 00:28:33;;;;;;;;;;;;;;;;;;2089558;28;44503;-65
2021/05/24 00:29:35;;;;;;;;;;;;;;;;;;2089217;28;43934;-65
2021/05/24 00:30:38;;;;;;;;;;;;;;;;;;2097662;28;46689;-65
2021/05/24 00:31:40;;;;;;;;;;;;;;;;;;2097305;28;44794;-65
2021/05/24 00:32:42;;;;;;;;;;;;;;;;;;2097835;28;45337;-65
2021/05/24 00:33:43;;;;;;;;;;;;;;;;;;2089070;28;45600;-65
2021/05/24 00:34:45;;;;;;;;;;;;;;;;;;2089213;28;46639;-65
2021/05/24 00:35:46;;;;;;;;;;;;;;;;;;2089202;28;46530;-65
2021/05/24 00:36:47;;;;;;;;;;;;;;;;;;2081182;28;44956;-65
2021/05/24 00:37:49;;;;;;;;;;;;;;;;;;2081241;28;45668;-65
2021/05/24 00:38:50;;;;;;;;;;;;;;;;;;2089208;28;44257;-65
2021/05/24 00:39:52;;;;;;;;;;;;;;;;;;2089300;28;45436;-65
2021/05/24 00:40:53;;;;;;;;;;;;;;;;;;2089231;28;45188;-66
2021/05/24 00:41:55;;;;;;;;;;;;;;;;;;2089865;28;45689;-66
2021/05/24 00:42:56;;;;;;;;;;;;;;;;;;2097255;28;46481;-66
2021/05/24 00:43:58;;;;;;;;;;;;;;;;;;2097473;28;44622;-66
2021/05/24 00:45:00;;;;;;;;;;;;;;;;;;2089719;28;45438;-66
2021/05/24 00:46:01;;;;;;;;;;;;;;;;;;2089170;28;46571;-65
2021/05/24 00:47:03;;;;;;;;;;;;;;;;;;2089337;28;42731;-66
2021/05/24 00:48:05;;;;;;;;;;;;;;;;;;2097526;28;47068;-65
2021/05/24 00:49:07;;;;;;;;;;;;;;;;;;2089256;28;45327;-65
2021/05/24 00:50:09;;;;;;;;;;;;;;;;;;2089312;28;44525;-67
2021/05/24 00:51:11;;;;;;;;;;;;;;;;;;2097176;28;46101;-67
2021/05/24 00:52:13;;;;;;;;;;;;;;;;;;2089011;28;45917;-66
2021/05/24 00:53:15;;;;;;;;;;;;;;;;;;2080611;28;45832;-66
2021/05/24 00:54:16;;;;;;;;;;;;;;;;;;2089216;28;45903;-67
2021/05/24 00:55:18;;;;;;;;;;;;;;;;;;2097403;28;45851;-67
2021/05/24 00:56:19;;;;;;;;;;;;;;;;;;2089147;28;44524;-66
2021/05/24 00:57:21;;;;;;;;;;;;;;;;;;2088965;28;45811;-67
2021/05/24 00:58:23;;;;;;;;;;;;;;;;;;2089699;28;46120;-67
2021/05/24 00:59:24;;;;;;;;;;;;;;;;;;2088969;28;46058;-67
2021/05/24 01:00:26;;;;;;;;;;;;;;;;;;2089108;28;45853;-67
2021/05/24 01:01:29;;;;;;;;;;;;;;;;;;2089033;28;47232;-67
2021/05/24 01:02:30;;;;;;;;;;;;;;;;;;2089562;28;46110;-66
2021/05/24 01:03:32;;;;;;;;;;;;;;;;;;2088848;28;47303;-67
2021/05/24 01:04:35;;;;;;;;;;;;;;;;;;2081021;28;45900;-67
2021/05/24 01:05:37;;;;;;;;;;;;;;;;;;2081049;28;47241;-66
2021/05/24 01:06:38;;;;;;;;;;;;;;;;;;2089070;28;44618;-66
2021/05/24 01:07:40;;;;;;;;;;;;;;;;;;2080960;28;45727;-66
2021/05/24 01:08:41;;;;;;;;;;;;;;;;;;2089055;28;45897;-66
2021/05/24 01:09:43;;;;;;;;;;;;;;;;;;2089795;28;47312;-66
2021/05/24 01:10:44;;;;;;;;;;;;;;;;;;2089636;28;45672;-66
2021/05/24 01:11:49;;;;;;;;;;;;;;;;;;2097113;28;45244;-66
2021/05/24 01:12:50;;;;;;;;;;;;;;;;;;2096543;28;45252;-66
2021/05/24 01:13:54;;;;;;;;;;;;;;;;;;2089346;28;45457;-66
2021/05/24 01:14:55;;;;;;;;;;;;;;;;;;2089592;28;46998;-66
2021/05/24 01:15:57;;;;;;;;;;;;;;;;;;2089641;28;43473;-66
2021/05/24 01:16:58;;;;;;;;;;;;;;;;;;2088916;28;45324;-66
2021/05/24 01:18:00;;;;;;;;;;;;;;;;;;2080556;28;45609;-67
2021/05/24 01:19:01;;;;;;;;;;;;;;;;;;2089007;28;44216;-66
2021/05/24 01:20:03;;;;;;;;;;;;;;;;;;2088904;28;44087;-66
2021/05/24 01:21:10;;;;;;;;;;;;;;;;;;2089223;28;45219;-66
2021/05/24 01:22:17;;;;;;;;;;;;;;;;;;2097060;28;45215;-66
2021/05/24 01:23:21;;;;;;;;;;;;;;;;;;2088726;28;45159;-66
2021/05/24 01:24:22;;;;;;;;;;;;;;;;;;2089383;28;45066;-66
2021/05/24 01:25:24;;;;;;;;;;;;;;;;;;2097181;28;45507;-66
2021/05/24 01:26:26;;;;;;;;;;;;;;;;;;2088896;28;45280;-66
2021/05/24 01:27:27;;;;;;;;;;;;;;;;;;2088910;28;45363;-66
2021/05/24 01:28:29;;;;;;;;;;;;;;;;;;2089513;28;46399;-66
2021/05/24 01:29:32;;;;;;;;;;;;;;;;;;2089505;28;45446;-66
2021/05/24 01:30:34;;;;;;;;;;;;;;;;;;2089519;28;46486;-66
2021/05/24 01:31:35;;;;;;;;;;;;;;;;;;2089292;28;45552;-66
2021/05/24 01:32:36;;;;;;;;;;;;;;;;;;2080564;28;45668;-66
2021/05/24 01:33:38;;;;;;;;;;;;;;;;;;2088794;28;46495;-66
2021/05/24 01:34:40;;;;;;;;;;;;;;;;;;2089805;28;42342;-66
2021/05/24 01:35:42;;;;;;;;;;;;;;;;;;2089525;28;45561;-67
2021/05/24 01:36:43;;;;;;;;;;;;;;;;;;2089621;28;45409;-66
2021/05/24 01:37:45;;;;;;;;;;;;;;;;;;2097105;28;45304;-66
2021/05/24 01:38:46;;;;;;;;;;;;;;;;;;2088883;28;45292;-67
2021/05/24 01:39:48;;;;;;;;;;;;;;;;;;2089014;28;46448;-66
2021/05/24 01:40:49;;;;;;;;;;;;;;;;;;2097091;28;46596;-66
2021/05/24 01:41:50;;;;;;;;;;;;;;;;;;2088908;28;45422;-66
2021/05/24 01:42:56;;;;;;;;;;;;;;;;;;2088475;28;45350;-67
2021/05/24 01:43:58;;;;;;;;;;;;;;;;;;2081394;28;43049;-66
2021/05/24 01:44:59;;;;;;;;;;;;;;;;;;2089027;28;46726;-66
2021/05/24 01:46:01;;;;;;;;;;;;;;;;;;2089102;28;46448;-67
2021/05/24 01:47:03;;;;;;;;;;;;;;;;;;2082266;28;43926;-67
2021/05/24 01:48:04;;;;;;;;;;;;;;;;;;2082244;28;45497;-65
2021/05/24 01:49:06;;;;;;;;;;;;;;;;;;2089719;28;45707;-65
2021/05/24 01:50:08;;;;;;;;;;;;;;;;;;2098575;28;45373;-65
2021/05/24 01:51:09;;;;;;;;;;;;;;;;;;2097795;28;45004;-65
2021/05/24 01:52:11;;;;;;;;;;;;;;;;;;2098131;28;45597;-63
2021/05/24 01:53:12;;;;;;;;;;;;;;;;;;2099710;28;45443;-63
2021/05/24 01:54:14;;;;;;;;;;;;;;;;;;2099767;28;46189;-63
2021/05/24 01:55:15;;;;;;;;;;;;;;;;;;2100268;28;45951;-64
2021/05/24 01:56:17;;;;;;;;;;;;;;;;;;2100171;28;45749;-64
2021/05/24 01:57:18;;;;;;;;;;;;;;;;;;2092181;28;44581;-64
2021/05/24 01:58:20;;;;;;;;;;;;;;;;;;2091857;28;47277;-64
2021/05/24 01:59:21;;;;;;;;;;;;;;;;;;2100460;28;44641;-64
2021/05/24 02:00:24;;;;;;;;;;;;;;;;;;2099689;28;47137;-64
2021/05/24 02:01:25;;;;;;;;;;;;;;;;;;2092197;28;45833;-64
2021/05/24 02:02:27;;;;;;;;;;;;;;;;;;2097440;28;44652;-64
2021/05/24 02:03:28;;;;;;;;;;;;;;;;;;2088548;28;47241;-64
2021/05/24 02:04:30;;;;;;;;;;;;;;;;;;2088836;28;46067;-63
2021/05/24 02:05:32;;;;;;;;;;;;;;;;;;2089300;28;47059;-64
2021/05/24 02:06:33;;;;;;;;;;;;;;;;;;2088763;28;45913;-64
2021/05/24 02:07:35;;;;;;;;;;;;;;;;;;2088556;28;46919;-64
2021/05/24 02:08:36;;;;;;;;;;;;;;;;;;2089367;28;44814;-63
2021/05/24 02:09:38;;;;;;;;;;;;;;;;;;2088655;28;47035;-64
2021/05/24 02:10:40;;;;;;;;;;;;;;;;;;2088782;28;44997;-63
2021/05/24 02:11:42;;;;;;;;;;;;;;;;;;2088558;28;46916;-62
2021/05/24 02:12:44;;;;;;;;;;;;;;;;;;2080387;28;44296;-64
2021/05/24 02:13:46;;;;;;;;;;;;;;;;;;2088286;28;47600;-64
2021/05/24 02:14:48;;;;;;;;;;;;;;;;;;2088677;28;48644;-64
2021/05/24 02:15:50;;;;;;;;;;;;;;;;;;2089609;28;45723;-64
2021/05/24 02:16:51;;;;;;;;;;;;;;;;;;2096994;28;45290;-64
2021/05/24 02:17:52;;;;;;;;;;;;;;;;;;2089268;28;46586;-64
2021/05/24 02:18:54;;;;;;;;;;;;;;;;;;2088677;28;45759;-65
2021/05/24 02:19:56;;;;;;;;;;;;;;;;;;2088832;28;46274;-64
2021/05/24 02:20:57;;;;;;;;;;;;;;;;;;2096825;28;45168;-65
2021/05/24 02:22:03;;;;;;;;;;;;;;;;;;2088477;28;45157;-65
2021/05/24 02:23:06;;;;;;;;;;;;;;;;;;2080867;28;45432;-65
2021/05/24 02:24:08;;;;;;;;;;;;;;;;;;2081598;28;45552;-65
2021/05/24 02:25:11;;;;;;;;;;;;;;;;;;2090113;28;44972;-65
2021/05/24 02:26:12;;;;;;;;;;;;;;;;;;2090658;28;46303;-64
2021/05/24 02:27:13;;;;;;;;;;;;;;;;;;2090726;28;45267;-65
2021/05/24 02:28:15;;;;;;;;;;;;;;;;;;2090137;28;45434;-65
2021/05/24 02:29:16;;;;;;;;;;;;;;;;;;2090050;28;45128;-65
2021/05/24 02:30:19;;;;;;;;;;;;;;;;;;2098469;28;42675;-65
2021/05/24 02:31:20;;;;;;;;;;;;;;;;;;2090064;28;43744;-65
2021/05/24 02:32:22;;;;;;;;;;;;;;;;;;2089914;28;46326;-65
2021/05/24 02:33:23;;;;;;;;;;;;;;;;;;2090489;28;43937;-65
2021/05/24 02:34:25;;;;;;;;;;;;;;;;;;2090658;28;45341;-65
2021/05/24 02:35:27;;;;;;;;;;;;;;;;;;2090575;28;46613;-65
2021/05/24 02:36:29;;;;;;;;;;;;;;;;;;2090649;28;46561;-65
2021/05/24 02:37:30;;;;;;;;;;;;;;;;;;2090288;28;46354;-65
2021/05/24 02:38:32;;;;;;;;;;;;;;;;;;2089651;28;44230;-65
2021/05/24 02:39:33;;;;;;;;;;;;;;;;;;2090138;28;44309;-64
2021/05/24 02:40:35;;;;;;;;;;;;;;;;;;2089479;28;43950;-64
2021/05/24 02:41:37;;;;;;;;;;;;;;;;;;2089496;28;45476;-64
2021/05/24 02:42:42;;;;;;;;;;;;;;;;;;2089680;28;45394;-65
2021/05/24 02:43:44;;;;;;;;;;;;;;;;;;2090517;28;45391;-64
2021/05/24 02:44:45;;;;;;;;;;;;;;;;;;2098357;28;44257;-64
2021/05/24 02:45:47;;;;;;;;;;;;;;;;;;2090222;28;44685;-64
2021/05/24 02:46:48;;;;;;;;;;;;;;;;;;2090136;28;44873;-64
2021/05/24 02:47:50;;;;;;;;;;;;;;;;;;2098358;28;44112;-64
2021/05/24 02:48:52;;;;;;;;;;;;;;;;;;2098219;28;44017;-64
2021/05/24 02:49:53;;;;;;;;;;;;;;;;;;2090568;28;46656;-64
2021/05/24 02:50:55;;;;;;;;;;;;;;;;;;2089883;28;46624;-64
2021/05/24 02:51:56;;;;;;;;;;;;;;;;;;2090089;28;45248;-65
2021/05/24 02:52:58;;;;;;;;;;;;;;;;;;2098126;28;45611;-64
2021/05/24 02:53:59;;;;;;;;;;;;;;;;;;2089611;28;46741;-64
2021/05/24 02:55:01;;;;;;;;;;;;;;;;;;2089830;28;43923;-64
2021/05/24 02:56:02;;;;;;;;;;;;;;;;;;2089884;28;46557;-65
2021/05/24 02:57:04;;;;;;;;;;;;;;;;;;2090010;28;44394;-66
2021/05/24 02:58:06;;;;;;;;;;;;;;;;;;2098050;28;45296;-67
2021/05/24 02:59:07;;;;;;;;;;;;;;;;;;2098580;28;46492;-65
2021/05/24 03:00:09;;;;;;;;;;;;;;;;;;2089830;28;46953;-65
2021/05/24 03:01:10;;;;;;;;;;;;;;;;;;2090415;28;43955;-65
2021/05/24 03:02:12;;;;;;;;;;;;;;;;;;2097894;28;46930;-65
2021/05/24 03:03:14;;;;;;;;;;;;;;;;;;2090262;28;45072;-65
2021/05/24 03:04:18;;;;;;;;;;;;;;;;;;2090560;28;44684;-65
2021/05/24 03:05:20;;;;;;;;;;;;;;;;;;2089870;28;44646;-65
2021/05/24 03:06:22;;;;;;;;;;;;;;;;;;2090107;28;47213;-65
2021/05/24 03:07:23;;;;;;;;;;;;;;;;;;2089797;28;47008;-65
2021/05/24 03:08:25;;;;;;;;;;;;;;;;;;2089955;28;43596;-65
2021/05/24 03:09:26;;;;;;;;;;;;;;;;;;2098085;28;45744;-65
2021/05/24 03:10:28;;;;;;;;;;;;;;;;;;2098019;28;45892;-65
2021/05/24 03:11:30;;;;;;;;;;;;;;;;;;2098125;28;45874;-65
2021/05/24 03:12:31;;;;;;;;;;;;;;;;;;2098040;28;43124;-64
2021/05/24 03:13:32;;;;;;;;;;;;;;;;;;2098011;28;43098;-65
2021/05/24 03:14:34;;;;;;;;;;;;;;;;;;2089646;28;47053;-64
2021/05/24 03:15:35;;;;;;;;;;;;;;;;;;2089849;28;45732;-64
2021/05/24 03:16:38;;;;;;;;;;;;;;;;;;2097931;28;46905;-65
2021/05/24 03:17:39;;;;;;;;;;;;;;;;;;2089769;28;47950;-65
2021/05/24 03:18:41;;;;;;;;;;;;;;;;;;2089655;28;44971;-65
2021/05/24 03:19:42;;;;;;;;;;;;;;;;;;2089772;28;45788;-65
2021/05/24 03:20:43;;;;;;;;;;;;;;;;;;2081430;28;45952;-65
2021/05/24 03:21:45;;;;;;;;;;;;;;;;;;2090158;28;45295;-64
2021/05/24 03:22:47;;;;;;;;;;;;;;;;;;2090049;28;44221;-64
2021/05/24 03:23:48;;;;;;;;;;;;;;;;;;2090110;28;45474;-64
2021/05/24 03:24:50;;;;;;;;;;;;;;;;;;2089491;28;46137;-65
2021/05/24 03:25:51;;;;;;;;;;;;;;;;;;2089826;28;43396;-65
2021/05/24 03:26:52;;;;;;;;;;;;;;;;;;2089413;28;45179;-65
2021/05/24 03:27:54;;;;;;;;;;;;;;;;;;2081660;28;46054;-65
2021/05/24 03:28:55;;;;;;;;;;;;;;;;;;2081389;28;46215;-64
2021/05/24 03:29:56;;;;;;;;;;;;;;;;;;2089737;28;44232;-65
2021/05/24 03:30:58;;;;;;;;;;;;;;;;;;2089616;28;46245;-65
2021/05/24 03:31:59;;;;;;;;;;;;;;;;;;2089985;28;43335;-66
2021/05/24 03:33:01;;;;;;;;;;;;;;;;;;2089574;28;46417;-65
2021/05/24 03:34:02;;;;;;;;;;;;;;;;;;2089746;28;44565;-65
2021/05/24 03:35:05;;;;;;;;;;;;;;;;;;2088892;28;46654;-65
2021/05/24 03:36:07;;;;;;;;;;;;;;;;;;2089049;28;44300;-64
2021/05/24 03:37:08;;;;;;;;;;;;;;;;;;2089566;28;44297;-63
2021/05/24 03:38:09;;;;;;;;;;;;;;;;;;2089657;28;46411;-63
2021/05/24 03:39:11;;;;;;;;;;;;;;;;;;2089652;28;43950;-64
2021/05/24 03:40:13;;;;;;;;;;;;;;;;;;2098011;28;43772;-64
2021/05/24 03:41:14;;;;;;;;;;;;;;;;;;2089573;28;43969;-64
2021/05/24 03:42:16;;;;;;;;;;;;;;;;;;2089513;28;43893;-63
2021/05/24 03:43:17;;;;;;;;;;;;;;;;;;2098154;28;45493;-63
2021/05/24 03:44:19;;;;;;;;;;;;;;;;;;2097935;28;44015;-63
2021/05/24 03:45:22;;;;;;;;;;;;;;;;;;2097702;28;44608;-63
2021/05/24 03:46:24;;;;;;;;;;;;;;;;;;2089526;28;45405;-63
2021/05/24 03:47:25;;;;;;;;;;;;;;;;;;2089429;28;45786;-63
2021/05/24 03:48:27;;;;;;;;;;;;;;;;;;2089473;28;46986;-63
2021/05/24 03:49:28;;;;;;;;;;;;;;;;;;2081267;28;44286;-63
2021/05/24 03:50:30;;;;;;;;;;;;;;;;;;2089540;28;43991;-63
2021/05/24 03:51:32;;;;;;;;;;;;;;;;;;2089515;28;46752;-63
2021/05/24 03:52:33;;;;;;;;;;;;;;;;;;2089561;28;46369;-63
2021/05/24 03:54:40;;;;;;;;;;;;;;;;;;2086913;28;14784;-71
2021/05/24 03:55:42;;;;;;;;;;;;;;;;;;2082289;28;46780;-71
2021/05/24 03:56:43;;;;;;;;;;;;;;;;;;2081051;28;45433;-71
2021/05/24 03:57:46;;;;;;;;;;;;;;;;;;2081790;28;43760;-71
2021/05/24 03:58:48;;;;;;;;;;;;;;;;;;2082001;28;44251;-71
2021/05/24 03:59:49;;;;;;;;;;;;;;;;;;2082058;28;45452;-71
2021/05/24 04:00:51;;;;;;;;;;;;;;;;;;2081584;28;46503;-71
2021/05/24 04:01:52;;;;;;;;;;;;;;;;;;2081574;28;46648;-71
2021/05/24 04:02:54;;;;;;;;;;;;;;;;;;2081224;28;45454;-71
2021/05/24 04:03:56;;;;;;;;;;;;;;;;;;2081410;28;45277;-71
2021/05/24 04:04:59;;;;;;;;;;;;;;;;;;2082473;28;45320;-71
2021/05/24 04:06:02;;;;;;;;;;;;;;;;;;2081469;28;47368;-71
2021/05/24 04:07:05;;;;;;;;;;;;;;;;;;2081266;28;45825;-71
2021/05/24 04:08:07;;;;;;;;;;;;;;;;;;2081664;28;45478;-71
2021/05/24 04:09:09;;;;;;;;;;;;;;;;;;2081367;28;46028;-71
2021/05/24 04:10:11;;;;;;;;;;;;;;;;;;2081338;28;47214;-71
2021/05/24 04:11:14;;;;;;;;;;;;;;;;;;2081753;28;44881;-71
2021/05/24 04:12:15;;;;;;;;;;;;;;;;;;2081392;28;45869;-71
2021/05/24 04:13:17;;;;;;;;;;;;;;;;;;2081312;28;46942;-71
2021/05/24 04:14:19;;;;;;;;;;;;;;;;;;2081484;28;45840;-71
2021/05/24 04:15:20;;;;;;;;;;;;;;;;;;2081557;28;45110;-71
2021/05/24 04:16:22;;;;;;;;;;;;;;;;;;2081450;28;46936;-70
2021/05/24 04:17:27;;;;;;;;;;;;;;;;;;2081924;28;45701;-71
2021/05/24 04:18:33;;;;;;;;;;;;;;;;;;2081444;28;45769;-71
2021/05/24 04:19:35;;;;;;;;;;;;;;;;;;2082985;28;47069;-70
2021/05/24 04:20:36;;;;;;;;;;;;;;;;;;2081211;28;44558;-71
2021/05/24 04:21:38;;;;;;;;;;;;;;;;;;2081519;28;42817;-71
2021/05/24 04:22:40;;;;;;;;;;;;;;;;;;2081096;28;47383;-71
2021/05/24 04:23:41;;;;;;;;;;;;;;;;;;2080934;28;46209;-72
2021/05/24 04:24:44;;;;;;;;;;;;;;;;;;2081512;28;44823;-72
2021/05/24 04:25:46;;;;;;;;;;;;;;;;;;2081489;28;45973;-71
2021/05/24 04:26:48;;;;;;;;;;;;;;;;;;2081273;28;43836;-72
2021/05/24 04:27:49;;;;;;;;;;;;;;;;;;2073520;28;45808;-71
2021/05/24 04:28:50;;;;;;;;;;;;;;;;;;2081794;28;43086;-71
2021/05/24 04:29:52;;;;;;;;;;;;;;;;;;2081136;28;42817;-71
2021/05/24 04:30:54;;;;;;;;;;;;;;;;;;2073173;28;44105;-71
2021/05/24 04:31:55;;;;;;;;;;;;;;;;;;2073460;28;44035;-71
2021/05/24 04:32:57;;;;;;;;;;;;;;;;;;2081353;28;42566;-71
2021/05/24 04:33:58;;;;;;;;;;;;;;;;;;2089099;28;47300;-70
2021/05/24 04:35:00;;;;;;;;;;;;;;;;;;2081086;28;45304;-71
2021/05/24 04:36:01;;;;;;;;;;;;;;;;;;2081378;28;43920;-70
2021/05/24 04:37:03;;;;;;;;;;;;;;;;;;2081056;28;44254;-71
2021/05/24 04:38:05;;;;;;;;;;;;;;;;;;2081164;28;45499;-70
2021/05/24 04:39:06;;;;;;;;;;;;;;;;;;2081024;28;46489;-70
2021/05/24 04:40:08;;;;;;;;;;;;;;;;;;2081226;28;46371;-71
2021/05/24 04:41:09;;;;;;;;;;;;;;;;;;2081159;28;48538;-71
2021/05/24 04:42:12;;;;;;;;;;;;;;;;;;2081038;28;42636;-71
2021/05/24 04:43:15;;;;;;;;;;;;;;;;;;2081808;28;46795;-71
2021/05/24 04:44:19;;;;;;;;;;;;;;;;;;2081581;28;43428;-71
2021/05/24 04:45:21;;;;;;;;;;;;;;;;;;2081660;28;45305;-71
2021/05/24 04:46:23;;;;;;;;;;;;;;;;;;2080583;28;44276;-71
2021/05/24 04:47:24;;;;;;;;;;;;;;;;;;2081050;28;46583;-72
2021/05/24 04:48:26;;;;;;;;;;;;;;;;;;2081521;28;42687;-71
2021/05/24 04:49:28;;;;;;;;;;;;;;;;;;2081515;28;43983;-71
2021/05/24 04:50:29;;;;;;;;;;;;;;;;;;2089036;28;44459;-71
2021/05/24 04:51:31;;;;;;;;;;;;;;;;;;2081014;28;45404;-71
2021/05/24 04:52:32;;;;;;;;;;;;;;;;;;2067915;28;44140;-71
2021/05/24 04:53:34;;;;;;;;;;;;;;;;;;2064597;28;46534;-71
2021/05/24 04:54:35;;;;;;;;;;;;;;;;;;2072637;28;44015;-70
2021/05/24 04:55:36;;;;;;;;;;;;;;;;;;2072885;28;45473;-70
2021/05/24 04:56:38;;;;;;;;;;;;;;;;;;2072646;28;45765;-71
2021/05/24 04:57:40;;;;;;;;;;;;;;;;;;2072962;28;45415;-71
2021/05/24 04:58:41;;;;;;;;;;;;;;;;;;2080943;28;45457;-71
2021/05/24 04:59:43;;;;;;;;;;;;;;;;;;2072645;28;45506;-71
2021/05/24 05:00:44;;;;;;;;;;;;;;;;;;2072720;28;45450;-70
2021/05/24 05:01:47;;;;;;;;;;;;;;;;;;2072837;28;45306;-71
2021/05/24 05:02:51;;;;;;;;;;;;;;;;;;2072581;28;45409;-71
2021/05/24 05:03:53;;;;;;;;;;;;;;;;;;2072626;28;45314;-71
2021/05/24 05:04:55;;;;;;;;;;;;;;;;;;2072984;28;43878;-71
2021/05/24 05:05:57;;;;;;;;;;;;;;;;;;2064924;28;45577;-71
2021/05/24 05:06:58;;;;;;;;;;;;;;;;;;2064504;28;44176;-72
2021/05/24 05:08:00;;;;;;;;;;;;;;;;;;2072728;28;44143;-72
2021/05/24 05:09:03;;;;;;;;;;;;;;;;;;2072560;28;45387;-72
2021/05/24 05:10:11;;;;;;;;;;;;;;;;;;2073165;28;43841;-71
2021/05/24 05:11:16;;;;;;;;;;;;;;;;;;2073805;28;46468;-71
2021/05/24 05:12:20;;;;;;;;;;;;;;;;;;2072526;28;44892;-71
2021/05/24 05:13:23;;;;;;;;;;;;;;;;;;2065217;28;45905;-71
2021/05/24 05:14:25;;;;;;;;;;;;;;;;;;2072389;28;42666;-72
2021/05/24 05:15:30;;;;;;;;;;;;;;;;;;2072740;28;46074;-71
2021/05/24 05:16:31;;;;;;;;;;;;;;;;;;2072734;28;44866;-71
2021/05/24 05:17:33;;;;;;;;;;;;;;;;;;2072350;28;48383;-71
2021/05/24 05:18:35;;;;;;;;;;;;;;;;;;2072642;28;45739;-71
2021/05/24 05:19:37;;;;;;;;;;;;;;;;;;2072694;28;44651;-71
2021/05/24 05:20:38;;;;;;;;;;;;;;;;;;2072621;28;47309;-71
2021/05/24 05:21:41;;;;;;;;;;;;;;;;;;2072785;28;47263;-71
2021/05/24 05:22:42;;;;;;;;;;;;;;;;;;2078927;28;46240;-71
2021/05/24 05:23:44;;;;;;;;;;;;;;;;;;2080492;28;47171;-71
2021/05/24 05:24:46;;;;;;;;;;;;;;;;;;2080707;28;44895;-71
2021/05/24 05:25:47;;;;;;;;;;;;;;;;;;2081252;28;45174;-70
2021/05/24 05:26:49;;;;;;;;;;;;;;;;;;2080776;28;48504;-70
2021/05/24 05:27:50;;;;;;;;;;;;;;;;;;2080672;28;46235;-70
2021/05/24 05:28:51;;;;;;;;;;;;;;;;;;2089036;28;47143;-70
2021/05/24 05:29:53;;;;;;;;;;;;;;;;;;2080656;28;44552;-70
2021/05/24 05:30:54;;;;;;;;;;;;;;;;;;2080811;28;44792;-70
2021/05/24 05:31:56;;;;;;;;;;;;;;;;;;2080929;28;42770;-70
2021/05/24 05:32:57;;;;;;;;;;;;;;;;;;2080636;28;45903;-70
2021/05/24 05:33:59;;;;;;;;;;;;;;;;;;2080972;28;45194;-70
2021/05/24 05:35:00;;;;;;;;;;;;;;;;;;2088902;28;46464;-70
2021/05/24 05:36:01;;;;;;;;;;;;;;;;;;2080881;28;45319;-71
2021/05/24 05:37:04;;;;;;;;;;;;;;;;;;2081199;28;46884;-70
2021/05/24 05:38:06;;;;;;;;;;;;;;;;;;2088984;28;43898;-71
2021/05/24 05:39:08;;;;;;;;;;;;;;;;;;2080849;28;44082;-72
2021/05/24 05:40:16;;;;;;;;;;;;;;;;;;2080805;28;46668;-72
2021/05/24 05:41:18;;;;;;;;;;;;;;;;;;2080855;28;45455;-72
2021/05/24 05:42:20;;;;;;;;;;;;;;;;;;2080593;28;43946;-73
2021/05/24 05:43:22;;;;;;;;;;;;;;;;;;2081584;28;44227;-72
2021/05/24 05:44:23;;;;;;;;;;;;;;;;;;2080786;28;44618;-73
2021/05/24 05:45:25;;;;;;;;;;;;;;;;;;2080616;28;45617;-72
2021/05/24 05:46:26;;;;;;;;;;;;;;;;;;2080985;28;44280;-72
2021/05/24 05:47:28;;;;;;;;;;;;;;;;;;2080809;28;45159;-72
2021/05/24 05:48:30;;;;;;;;;;;;;;;;;;2081027;28;43917;-72
2021/05/24 05:49:31;;;;;;;;;;;;;;;;;;2081450;28;44438;-72
2021/05/24 05:50:33;;;;;;;;;;;;;;;;;;2089057;28;48815;-73
2021/05/24 05:51:35;;;;;;;;;;;;;;;;;;2080943;28;44333;-71
2021/05/24 05:52:37;;;;;;;;;;;;;;;;;;2080340;28;45933;-71
2021/05/24 05:53:38;;;;;;;;;;;;;;;;;;2072401;28;47650;-71
2021/05/24 05:54:40;;;;;;;;;;;;;;;;;;2081128;28;45628;-71
2021/05/24 05:55:41;;;;;;;;;;;;;;;;;;2081174;28;46371;-70
2021/05/24 05:56:42;;;;;;;;;;;;;;;;;;2080917;28;44343;-71
2021/05/24 05:57:44;;;;;;;;;;;;;;;;;;2080934;28;43617;-72
2021/05/24 05:58:45;;;;;;;;;;;;;;;;;;2081340;28;44424;-71
2021/05/24 05:59:50;;;;;;;;;;;;;;;;;;2082443;28;45231;-72
2021/05/24 06:00:55;;;;;;;;;;;;;;;;;;2082264;28;45727;-71
2021/05/24 06:01:56;;;;;;;;;;;;;;;;;;2082100;28;47260;-72
2021/05/24 06:02:58;;;;;;;;;;;;;;;;;;2082190;28;43901;-73
2021/05/24 06:04:03;;;;;;;;;;;;;;;;;;2082441;28;46641;-72
2021/05/24 06:05:05;;;;;;;;;;;;;;;;;;2082081;28;46767;-72
2021/05/24 06:06:06;;;;;;;;;;;;;;;;;;2082564;28;43106;-72
2021/05/24 06:07:08;;;;;;;;;;;;;;;;;;2082352;28;45892;-71
2021/05/24 06:08:10;;;;;;;;;;;;;;;;;;2082948;28;46514;-72
2021/05/24 06:09:11;;;;;;;;;;;;;;;;;;2082786;28;45799;-71
2021/05/24 06:10:13;;;;;;;;;;;;;;;;;;2082424;28;43964;-71
2021/05/24 06:11:15;;;;;;;;;;;;;;;;;;2082325;28;45594;-72
2021/05/24 06:12:17;;;;;;;;;;;;;;;;;;2082611;28;45281;-72
2021/05/24 06:13:18;;;;;;;;;;;;;;;;;;2082818;28;45243;-73
2021/05/24 06:14:20;;;;;;;;;;;;;;;;;;2082879;28;43782;-72
2021/05/24 06:15:22;;;;;;;;;;;;;;;;;;2082463;28;46652;-72
2021/05/24 06:16:24;;;;;;;;;;;;;;;;;;2082226;28;46861;-72
2021/05/24 06:17:25;;;;;;;;;;;;;;;;;;2082467;28;45432;-72
2021/05/24 06:18:26;;;;;;;;;;;;;;;;;;2073899;28;47110;-72
2021/05/24 06:19:28;;;;;;;;;;;;;;;;;;2073952;28;46077;-70
2021/05/24 06:20:31;;;;;;;;;;;;;;;;;;2073745;28;44441;-72
2021/05/24 06:21:35;;;;;;;;;;;;;;;;;;2082004;28;46939;-72
2021/05/24 06:22:37;;;;;;;;;;;;;;;;;;2076994;28;47272;-72
2021/05/24 06:23:38;;;;;;;;;;;;;;;;;;2074200;28;44585;-72
2021/05/24 06:24:39;;;;;;;;;;;;;;;;;;2081989;28;45870;-72
2021/05/24 06:25:42;;;;;;;;;;;;;;;;;;2081973;28;44767;-72
2021/05/24 06:26:43;;;;;;;;;;;;;;;;;;2074668;28;45954;-73
2021/05/24 06:27:45;;;;;;;;;;;;;;;;;;2074114;28;46961;-73
2021/05/24 06:28:46;;;;;;;;;;;;;;;;;;2074071;28;43472;-71
2021/05/24 06:29:48;;;;;;;;;;;;;;;;;;2074861;28;46111;-72
2021/05/24 06:30:49;;;;;;;;;;;;;;;;;;2073610;28;46182;-73
2021/05/24 06:31:52;;;;;;;;;;;;;;;;;;2066135;28;46038;-73
2021/05/24 06:32:53;;;;;;;;;;;;;;;;;;2066097;28;46867;-73
2021/05/24 06:33:56;;;;;;;;;;;;;;;;;;2073804;28;45862;-72
2021/05/24 06:34:57;;;;;;;;;;;;;;;;;;2073946;28;42566;-71
2021/05/24 06:35:59;;;;;;;;;;;;;;;;;;2082024;28;45988;-71
2021/05/24 06:37:01;;;;;;;;;;;;;;;;;;2073874;28;47292;-71
2021/05/24 06:38:02;;;;;;;;;;;;;;;;;;2066147;28;43830;-72
2021/05/24 06:39:04;;;;;;;;;;;;;;;;;;2074263;28;46107;-71
2021/05/24 06:40:06;;;;;;;;;;;;;;;;;;2074395;28;47245;-71
2021/05/24 06:41:07;;;;;;;;;;;;;;;;;;2073907;28;45659;-72
2021/05/24 06:42:09;;;;;;;;;;;;;;;;;;2073897;28;45255;-71
2021/05/24 06:43:10;;;;;;;;;;;;;;;;;;2074292;28;46528;-72
2021/05/24 06:44:12;;;;;;;;;;;;;;;;;;2074045;28;44830;-71
2021/05/24 06:45:19;;;;;;;;;;;;;;;;;;2074536;28;46386;-71
2021/05/24 06:46:20;;;;;;;;;;;;;;;;;;2074030;28;46735;-72
2021/05/24 06:47:23;;;;;;;;;;;;;;;;;;2065726;28;45148;-71
2021/05/24 06:48:25;;;;;;;;;;;;;;;;;;2073878;28;46713;-70
2021/05/24 06:49:26;;;;;;;;;;;;;;;;;;2073660;28;43885;-72
2021/05/24 06:50:28;;;;;;;;;;;;;;;;;;2074113;28;45702;-73
2021/05/24 06:51:29;;;;;;;;;;;;;;;;;;2073726;28;47210;-73
2021/05/24 06:52:31;;;;;;;;;;;;;;;;;;2078141;28;45487;-73
2021/05/24 06:53:33;;;;;;;;;;;;;;;;;;2081860;28;45404;-72
2021/05/24 06:54:36;;;;;;;;;;;;;;;;;;2081679;28;45433;-73
2021/05/24 06:55:37;;;;;;;;;;;;;;;;;;2081963;28;45587;-73
2021/05/24 06:56:39;;;;;;;;;;;;;;;;;;2090447;28;44939;-74
2021/05/24 06:57:41;;;;;;;;;;;;;;;;;;2089887;28;45171;-73
2021/05/24 06:58:42;;;;;;;;;;;;;;;;;;2081827;28;44093;-74
2021/05/24 06:59:44;;;;;;;;;;;;;;;;;;2081807;28;45165;-74
2021/05/24 07:00:45;;;;;;;;;;;;;;;;;;2081820;28;46474;-74
2021/05/24 07:01:47;;;;;;;;;;;;;;;;;;2090201;28;46742;-74
2021/05/24 07:02:48;;;;;;;;;;;;;;;;;;2089854;28;44047;-74
2021/05/24 07:03:50;;;;;;;;;;;;;;;;;;2081482;28;46792;-73